createdAt,value
2023-05-06T00:02:01.713Z,101231.31
2023-05-06T00:04:28.618Z,101233.81
2023-05-06T00:06:56.821Z,101242.91
2023-05-06T00:09:28.040Z,101234.63
2023-05-06T00:11:54.820Z,101239.94
2023-05-06T00:14:21.581Z,101234.81
2023-05-06T00:16:48.499Z,101237.44
2023-05-06T00:19:15.540Z,101237.44
2023-05-06T00:21:42.400Z,101240.41
2023-05-06T00:24:09.391Z,101235.59
2023-05-06T00:26:36.165Z,101228.00
2023-05-06T00:29:03.011Z,101232.22
2023-05-06T00:31:29.810Z,101224.75
2023-05-06T00:33:56.771Z,101237.75
2023-05-06T00:36:23.767Z,101235.41
2023-05-06T00:38:51.063Z,101236.59
2023-05-06T00:41:17.841Z,101228.66
2023-05-06T00:43:44.602Z,101230.66
2023-05-06T00:46:11.770Z,101232.88
2023-05-06T00:48:38.618Z,101226.13
2023-05-06T00:51:06.252Z,101224.50
2023-05-06T00:53:33.469Z,101217.22
2023-05-06T00:56:00.362Z,101221.66
2023-05-06T00:58:27.233Z,101234.44
2023-05-06T01:00:55.338Z,101225.63
2023-05-06T01:03:23.065Z,101218.09
2023-05-06T01:05:59.596Z,101231.25
2023-05-06T01:08:44.727Z,101220.22
2023-05-06T01:11:19.629Z,101222.28
2023-05-06T01:13:54.804Z,101212.84
2023-05-06T01:16:23.671Z,101224.69
2023-05-06T01:18:52.450Z,101215.25
2023-05-06T01:21:19.543Z,101216.59
2023-05-06T01:23:53.001Z,101216.69
2023-05-06T01:26:19.891Z,101215.56
2023-05-06T01:28:46.727Z,101220.13
2023-05-06T01:31:17.908Z,101217.19
2023-05-06T01:34:06.315Z,101222.91
2023-05-06T01:36:41.406Z,101232.47
2023-05-06T01:39:25.093Z,101229.19
2023-05-06T01:41:54.329Z,101225.03
2023-05-06T01:44:22.564Z,101223.16
2023-05-06T01:46:50.352Z,101225.19
2023-05-06T01:49:18.797Z,101221.28
2023-05-06T01:51:49.609Z,101224.91
2023-05-06T01:54:17.190Z,101220.13
2023-05-06T01:56:44.838Z,101218.28
2023-05-06T01:59:11.676Z,101225.16
2023-05-06T02:01:38.514Z,101222.63
2023-05-06T02:04:07.364Z,101222.75
2023-05-06T02:06:34.313Z,101219.69
2023-05-06T02:09:01.379Z,101227.53
2023-05-06T02:11:29.787Z,101226.03
2023-05-06T02:14:02.549Z,101222.13
2023-05-06T02:16:31.952Z,101221.28
2023-05-06T02:18:58.746Z,101223.19
2023-05-06T02:21:25.868Z,101226.84
2023-05-06T02:23:52.582Z,101221.59
2023-05-06T02:26:19.420Z,101225.28
2023-05-06T02:28:46.297Z,101222.47
2023-05-06T02:31:15.205Z,101221.78
2023-05-06T02:33:42.147Z,101215.31
2023-05-06T02:36:10.153Z,101213.13
2023-05-06T02:38:37.042Z,101210.38
2023-05-06T02:41:03.818Z,101217.22
2023-05-06T02:43:30.627Z,101221.34
2023-05-06T02:45:58.447Z,101220.63
2023-05-06T02:48:25.973Z,101219.22
2023-05-06T02:50:52.714Z,101230.94
2023-05-06T02:53:19.621Z,101215.06
2023-05-06T02:55:46.660Z,101213.25
2023-05-06T02:58:14.344Z,101214.47
2023-05-06T03:00:41.184Z,101218.78
2023-05-06T03:03:07.967Z,101220.31
2023-05-06T03:05:34.921Z,101214.78
2023-05-06T03:08:02.592Z,101216.84
2023-05-06T03:10:30.730Z,101223.28
2023-05-06T03:12:58.586Z,101229.13
2023-05-06T03:15:26.066Z,101222.31
2023-05-06T03:17:53.786Z,101223.53
2023-05-06T03:20:21.329Z,101230.03
2023-05-06T03:22:52.044Z,101229.44
2023-05-06T03:25:20.051Z,101224.56
2023-05-06T03:27:47.257Z,101237.28
2023-05-06T03:30:18.887Z,101227.38
2023-05-06T03:32:47.390Z,101224.22
2023-05-06T03:35:17.986Z,101223.75
2023-05-06T03:37:49.022Z,101225.00
2023-05-06T03:40:16.661Z,101231.88
2023-05-06T03:42:43.616Z,101228.16
2023-05-06T03:45:11.007Z,101226.00
2023-05-06T03:47:38.411Z,101216.63
2023-05-06T03:50:08.123Z,101221.47
2023-05-06T03:52:36.506Z,101220.56
2023-05-06T03:55:04.932Z,101221.34
2023-05-06T03:57:31.821Z,101229.16
2023-05-06T03:59:58.655Z,101226.78
2023-05-06T04:02:29.396Z,101227.22
2023-05-06T04:04:57.593Z,101222.31
2023-05-06T04:07:24.243Z,101219.53
2023-05-06T04:09:51.126Z,101221.69
2023-05-06T04:12:18.463Z,101219.16
2023-05-06T04:14:46.392Z,101215.94
2023-05-06T04:17:13.360Z,101206.44
2023-05-06T04:19:40.203Z,101216.19
2023-05-06T04:22:06.875Z,101220.69
2023-05-06T04:24:34.945Z,101220.91
2023-05-06T04:27:03.194Z,101224.22
2023-05-06T04:29:30.490Z,101221.59
2023-05-06T04:32:03.684Z,101222.84
2023-05-06T04:34:36.393Z,101225.91
2023-05-06T04:37:05.683Z,101223.84
2023-05-06T04:39:47.050Z,101229.66
2023-05-06T04:42:14.595Z,101233.00
2023-05-06T04:44:49.056Z,101231.84
2023-05-06T04:47:17.851Z,101237.47
2023-05-06T04:49:48.091Z,101237.66
2023-05-06T04:52:15.249Z,101236.50
2023-05-06T04:54:43.562Z,101249.16
2023-05-06T04:57:12.226Z,101240.25
2023-05-06T04:59:42.633Z,101242.91
2023-05-06T05:02:09.856Z,101251.81
2023-05-06T05:04:36.931Z,101250.53
2023-05-06T05:07:03.790Z,101257.38
2023-05-06T05:09:31.846Z,101256.25
2023-05-06T05:11:58.795Z,101259.31
2023-05-06T05:14:26.207Z,101261.25
2023-05-06T05:16:53.006Z,101255.91
2023-05-06T05:19:19.685Z,101259.22
2023-05-06T05:21:46.557Z,101260.13
2023-05-06T05:24:13.828Z,101263.31
2023-05-06T05:26:40.577Z,101263.78
2023-05-06T05:29:07.408Z,101266.28
2023-05-06T05:31:35.401Z,101273.00
2023-05-06T05:34:02.245Z,101276.06
2023-05-06T05:36:29.148Z,101276.97
2023-05-06T05:38:58.590Z,101284.84
2023-05-06T05:41:27.907Z,101281.53
2023-05-06T05:43:55.542Z,101279.50
2023-05-06T05:46:22.944Z,101279.59
2023-05-06T05:48:51.009Z,101274.84
2023-05-06T05:51:20.476Z,101273.91
2023-05-06T05:53:47.394Z,101277.59
2023-05-06T05:56:14.632Z,101277.41
2023-05-06T05:58:41.955Z,101275.47
2023-05-06T06:01:09.372Z,101279.03
2023-05-06T06:03:36.566Z,101260.75
2023-05-06T06:06:05.550Z,101274.66
2023-05-06T06:08:33.209Z,101270.19
2023-05-06T06:11:01.988Z,101269.84
2023-05-06T06:13:35.162Z,101269.06
2023-05-06T06:16:02.070Z,101278.50
2023-05-06T06:18:29.064Z,101264.59
2023-05-06T06:20:55.849Z,101261.97
2023-05-06T06:23:23.778Z,101265.78
2023-05-06T06:25:50.671Z,101263.78
2023-05-06T06:28:17.542Z,101266.75
2023-05-06T06:30:45.195Z,101262.41
2023-05-06T06:33:12.071Z,101259.63
2023-05-06T06:35:40.046Z,101257.13
2023-05-06T06:38:06.772Z,101261.63
2023-05-06T06:40:33.651Z,101255.06
2023-05-06T06:43:01.135Z,101247.06
2023-05-06T06:45:51.341Z,101256.00
2023-05-06T06:48:18.710Z,101264.78
2023-05-06T06:50:45.450Z,101259.22
2023-05-06T06:53:12.251Z,101260.03
2023-05-06T06:55:39.015Z,101269.31
2023-05-06T06:58:05.900Z,101263.72
2023-05-06T07:00:32.710Z,101271.19
2023-05-06T07:02:59.429Z,101275.25
2023-05-06T07:05:27.040Z,101274.59
2023-05-06T07:07:54.525Z,101273.94
2023-05-06T07:10:21.945Z,101278.59
2023-05-06T07:12:48.738Z,101281.50
2023-05-06T07:15:15.945Z,101281.28
2023-05-06T07:17:42.862Z,101283.13
2023-05-06T07:20:10.340Z,101270.06
2023-05-06T07:22:39.655Z,101273.38
2023-05-06T07:25:07.048Z,101266.38
2023-05-06T07:27:33.801Z,101272.91
2023-05-06T07:30:00.736Z,101278.38
2023-05-06T07:32:27.541Z,101272.00
2023-05-06T07:34:54.554Z,101272.97
2023-05-06T07:37:21.436Z,101270.13
2023-05-06T07:39:48.368Z,101276.34
2023-05-06T07:42:15.558Z,101276.66
2023-05-06T07:44:42.297Z,101269.59
2023-05-06T07:47:10.161Z,101279.28
2023-05-06T07:49:37.217Z,101286.75
2023-05-06T07:52:04.750Z,101284.94
2023-05-06T07:54:32.088Z,101276.44
2023-05-06T07:56:59.116Z,101267.56
2023-05-06T07:59:26.023Z,101269.22
2023-05-06T08:01:52.832Z,101276.22
2023-05-06T08:04:19.762Z,101275.53
2023-05-06T08:06:46.554Z,101265.63
2023-05-06T08:09:22.027Z,101271.53
2023-05-06T08:11:50.256Z,101282.91
2023-05-06T08:14:17.146Z,101280.28
2023-05-06T08:16:43.978Z,101281.78
2023-05-06T08:19:10.817Z,101284.97
2023-05-06T08:21:37.656Z,101278.69
2023-05-06T08:24:04.578Z,101281.56
2023-05-06T08:26:31.384Z,101274.06
2023-05-06T08:28:59.578Z,101287.16
2023-05-06T08:31:26.793Z,101279.47
2023-05-06T08:33:54.785Z,101284.81
2023-05-06T08:36:22.398Z,101273.72
2023-05-06T08:38:51.124Z,101275.31
2023-05-06T08:41:19.654Z,101270.72
2023-05-06T08:43:48.712Z,101269.13
2023-05-06T08:46:16.790Z,101268.22
2023-05-06T08:48:44.415Z,101267.13
2023-05-06T08:51:15.197Z,101262.50
2023-05-06T08:53:55.893Z,101278.66
2023-05-06T08:56:30.477Z,101266.88
2023-05-06T08:58:58.888Z,101273.44
2023-05-06T09:01:28.186Z,101265.44
2023-05-06T09:04:06.553Z,101265.94
2023-05-06T09:06:54.097Z,101247.75
2023-05-06T09:09:35.058Z,101257.22
2023-05-06T09:12:18.330Z,101272.78
2023-05-06T09:15:05.006Z,101269.72
2023-05-06T09:17:48.335Z,101272.34
2023-05-06T09:20:38.504Z,101274.31
2023-05-06T09:27:10.890Z,101250.47
2023-05-06T09:30:15.615Z,101253.78
2023-05-06T09:33:15.512Z,101249.81
2023-05-06T09:36:22.836Z,101259.09
2023-05-06T09:39:01.240Z,101260.13
2023-05-06T09:41:46.477Z,101258.31
2023-05-06T09:44:39.995Z,101242.16
2023-05-06T09:47:33.896Z,101255.09
2023-05-06T09:50:39.938Z,101242.16
2023-05-06T09:53:23.332Z,101238.41
2023-05-06T09:56:14.694Z,101250.06
2023-05-06T09:58:53.077Z,101229.84
2023-05-06T10:01:38.455Z,101245.69
2023-05-06T10:04:32.419Z,101229.94
2023-05-06T10:07:27.571Z,101232.81
2023-05-06T10:10:04.272Z,101226.75
2023-05-06T10:12:41.104Z,101231.84
2023-05-06T10:15:29.212Z,101226.25
2023-05-06T10:18:01.440Z,101227.78
2023-05-06T10:20:30.989Z,101234.47
2023-05-06T10:23:08.184Z,101231.63
2023-05-06T10:25:49.011Z,101233.06
2023-05-06T10:28:21.800Z,101226.84
2023-05-06T10:30:59.824Z,101227.84
2023-05-06T10:33:28.181Z,101224.09
2023-05-06T10:36:28.601Z,101221.19
2023-05-06T10:38:57.545Z,101221.28
2023-05-06T10:41:28.054Z,101218.28
2023-05-06T10:44:00.558Z,101222.38
2023-05-06T10:46:32.734Z,101207.50
2023-05-06T10:52:14.521Z,101205.59
2023-05-06T10:54:52.505Z,101199.50
2023-05-06T10:57:23.549Z,101203.88
2023-05-06T10:59:52.391Z,101206.72
2023-05-06T11:02:21.352Z,101199.13
2023-05-06T11:04:51.944Z,101192.00
2023-05-06T11:07:24.352Z,101195.69
2023-05-06T11:10:02.039Z,101189.09
2023-05-06T11:12:52.165Z,101193.03
2023-05-06T11:15:26.587Z,101198.59
2023-05-06T11:17:56.369Z,101187.97
2023-05-06T11:20:26.224Z,101192.34
2023-05-06T11:22:54.247Z,101184.13
2023-05-06T11:25:41.454Z,101178.94
2023-05-06T11:28:11.061Z,101178.56
2023-05-06T11:30:42.020Z,101184.88
2023-05-06T11:33:14.455Z,101166.72
2023-05-06T11:35:41.826Z,101168.66
2023-05-06T11:38:09.993Z,101175.38
2023-05-06T11:40:38.157Z,101162.34
2023-05-06T11:43:12.196Z,101168.72
2023-05-06T11:45:48.679Z,101170.25
2023-05-06T11:48:16.878Z,101160.31
2023-05-06T11:50:48.123Z,101158.75
2023-05-06T11:53:19.188Z,101173.69
2023-05-06T11:55:47.425Z,101176.63
2023-05-06T11:58:20.181Z,101174.63
2023-05-06T12:00:51.431Z,101170.63
2023-05-06T12:03:20.108Z,101171.06
2023-05-06T12:05:50.748Z,101175.03
2023-05-06T12:08:28.066Z,101175.41
2023-05-06T12:11:08.421Z,101173.78
2023-05-06T12:13:40.695Z,101168.25
2023-05-06T12:16:08.632Z,101180.09
2023-05-06T12:18:35.980Z,101184.53
2023-05-06T12:21:03.744Z,101177.00
2023-05-06T12:23:30.985Z,101182.09
2023-05-06T12:26:04.986Z,101188.38
2023-05-06T12:28:35.851Z,101180.97
2023-05-06T12:31:23.372Z,101187.19
2023-05-06T12:33:50.965Z,101191.06
2023-05-06T12:36:19.174Z,101197.84
2023-05-06T12:38:57.306Z,101194.28
2023-05-06T12:41:26.382Z,101183.81
2023-05-06T12:43:53.093Z,101173.41
2023-05-06T12:46:20.224Z,101191.69
2023-05-06T12:49:03.490Z,101198.88
2023-05-06T12:51:33.650Z,101184.94
2023-05-06T12:54:00.547Z,101203.47
2023-05-06T12:56:27.790Z,101202.78
2023-05-06T12:59:01.755Z,101199.59
2023-05-06T13:01:28.650Z,101198.63
2023-05-06T13:03:57.217Z,101199.19
2023-05-06T13:06:24.323Z,101205.53
2023-05-06T13:08:51.051Z,101189.78
2023-05-06T13:11:18.018Z,101186.53
2023-05-06T13:13:45.112Z,101186.03
2023-05-06T13:16:11.941Z,101191.06
2023-05-06T13:18:39.004Z,101193.84
2023-05-06T13:21:05.892Z,101199.38
2023-05-06T13:23:35.039Z,101191.13
2023-05-06T13:26:06.008Z,101192.50
2023-05-06T13:28:35.419Z,101202.53
2023-05-06T13:31:02.292Z,101189.94
2023-05-06T13:33:29.274Z,101191.91
2023-05-06T13:35:56.008Z,101194.63
2023-05-06T13:38:23.330Z,101187.53
2023-05-06T13:40:53.995Z,101180.94
2023-05-06T13:43:21.723Z,101185.47
2023-05-06T13:45:48.522Z,101185.59
2023-05-06T13:48:15.329Z,101172.69
2023-05-06T13:50:43.063Z,101168.88
2023-05-06T13:53:10.895Z,101180.06
2023-05-06T13:55:38.092Z,101182.88
2023-05-06T13:58:05.848Z,101180.50
2023-05-06T14:00:33.204Z,101178.91
2023-05-06T14:03:00.740Z,101175.81
2023-05-06T14:05:27.782Z,101167.78
2023-05-06T14:07:54.507Z,101172.66
2023-05-06T14:10:21.310Z,101175.44
2023-05-06T14:12:48.564Z,101173.69
2023-05-06T14:15:15.272Z,101167.53
2023-05-06T14:17:42.542Z,101166.34
2023-05-06T14:20:10.234Z,101162.38
2023-05-06T14:22:39.805Z,101162.78
2023-05-06T14:25:07.282Z,101148.53
2023-05-06T14:27:34.523Z,101162.34
2023-05-06T14:30:02.353Z,101148.56
2023-05-06T14:32:29.458Z,101152.38
2023-05-06T14:34:56.957Z,101150.50
2023-05-06T14:37:23.905Z,101148.50
2023-05-06T14:39:50.738Z,101140.47
2023-05-06T14:42:17.640Z,101149.69
2023-05-06T14:44:48.593Z,101150.81
2023-05-06T14:47:15.355Z,101148.06
2023-05-06T14:49:42.030Z,101150.72
2023-05-06T14:52:08.847Z,101145.28
2023-05-06T14:54:36.871Z,101142.97
2023-05-06T14:57:03.913Z,101144.91
2023-05-06T14:59:30.595Z,101145.75
2023-05-06T15:01:58.802Z,101143.09
2023-05-06T15:04:25.564Z,101144.91
2023-05-06T15:06:52.341Z,101144.94
2023-05-06T15:09:19.024Z,101146.16
2023-05-06T15:11:46.741Z,101136.63
2023-05-06T15:14:13.608Z,101131.91
2023-05-06T15:16:41.102Z,101137.41
2023-05-06T15:19:08.098Z,101142.56
2023-05-06T15:21:35.437Z,101132.75
2023-05-06T15:24:02.412Z,101136.59
2023-05-06T15:26:29.557Z,101135.09
2023-05-06T15:28:56.274Z,101141.81
2023-05-06T15:31:23.197Z,101143.03
2023-05-06T15:33:50.040Z,101142.81
2023-05-06T15:36:16.941Z,101150.38
2023-05-06T15:38:52.815Z,101149.88
2023-05-06T15:41:19.935Z,101150.31
2023-05-06T15:43:46.664Z,101159.88
2023-05-06T15:46:13.465Z,101158.94
2023-05-06T15:48:40.227Z,101160.84
2023-05-06T15:51:07.830Z,101169.13
2023-05-06T15:53:34.767Z,101164.22
2023-05-06T15:56:13.212Z,101163.25
2023-05-06T15:58:44.942Z,101151.53
2023-05-06T16:01:11.793Z,101170.06
2023-05-06T16:03:41.130Z,101153.22
2023-05-06T16:06:09.918Z,101169.22
2023-05-06T16:08:38.049Z,101159.53
2023-05-06T16:11:05.512Z,101159.00
2023-05-06T16:13:32.446Z,101165.81
2023-05-06T16:16:01.251Z,101165.13
2023-05-06T16:18:28.317Z,101165.97
2023-05-06T16:20:56.056Z,101166.31
2023-05-06T16:23:23.022Z,101152.84
2023-05-06T16:25:49.885Z,101151.63
2023-05-06T16:28:16.886Z,101154.66
2023-05-06T16:30:46.325Z,101157.16
2023-05-06T16:33:13.515Z,101158.00
2023-05-06T16:35:40.608Z,101161.13
2023-05-06T16:38:07.557Z,101162.63
2023-05-06T16:40:42.012Z,101164.63
2023-05-06T16:43:09.725Z,101163.91
2023-05-06T16:45:36.480Z,101153.72
2023-05-06T16:48:03.402Z,101159.22
2023-05-06T16:50:30.200Z,101156.47
2023-05-06T16:52:57.737Z,101152.91
2023-05-06T16:55:24.600Z,101151.72
2023-05-06T16:57:51.444Z,101145.34
2023-05-06T17:00:18.756Z,101156.88
2023-05-06T17:02:46.308Z,101144.91
2023-05-06T17:05:13.145Z,101144.41
2023-05-06T17:07:40.231Z,101154.75
2023-05-06T17:10:08.471Z,101150.34
2023-05-06T17:12:35.750Z,101138.16
2023-05-06T17:15:03.911Z,101141.28
2023-05-06T17:17:32.743Z,101145.22
2023-05-06T17:20:00.369Z,101149.56
2023-05-06T17:22:27.147Z,101142.44
2023-05-06T17:24:53.989Z,101148.81
2023-05-06T17:27:21.160Z,101139.78
2023-05-06T17:29:47.937Z,101135.88
2023-05-06T17:32:14.716Z,101144.88
2023-05-06T17:34:41.659Z,101146.13
2023-05-06T17:37:08.965Z,101146.72
2023-05-06T17:39:36.446Z,101152.28
2023-05-06T17:42:03.385Z,101148.88
2023-05-06T17:44:30.245Z,101150.88
2023-05-06T17:46:57.091Z,101143.75
2023-05-06T17:49:23.989Z,101142.16
2023-05-06T17:51:51.182Z,101148.97
2023-05-06T17:54:18.243Z,101149.94
2023-05-06T17:56:50.734Z,101150.44
2023-05-06T17:59:19.552Z,101151.19
2023-05-06T18:01:46.727Z,101142.94
2023-05-06T18:04:14.049Z,101142.16
2023-05-06T18:06:42.022Z,101150.44
2023-05-06T18:09:10.400Z,101148.88
2023-05-06T18:11:38.528Z,101148.81
2023-05-06T18:14:06.479Z,101150.44
2023-05-06T18:16:34.932Z,101149.25
2023-05-06T18:19:04.642Z,101158.31
2023-05-06T18:21:32.401Z,101158.31
2023-05-06T18:24:10.265Z,101158.72
2023-05-06T18:26:45.421Z,101160.28
2023-05-06T18:29:13.371Z,101162.63
2023-05-06T18:31:40.360Z,101156.25
2023-05-06T18:34:07.231Z,101159.38
2023-05-06T18:36:35.115Z,101160.56
2023-05-06T18:39:05.678Z,101169.25
2023-05-06T18:41:33.236Z,101155.06
2023-05-06T18:43:59.999Z,101162.97
2023-05-06T18:46:27.611Z,101162.94
2023-05-06T18:48:56.285Z,101160.56
2023-05-06T18:51:26.456Z,101152.63
2023-05-06T18:53:53.583Z,101159.72
2023-05-06T18:56:21.478Z,101162.88
2023-05-06T18:58:48.296Z,101161.72
2023-05-06T19:01:15.639Z,101158.47
2023-05-06T19:03:42.840Z,101164.84
2023-05-06T19:06:10.597Z,101151.41
2023-05-06T19:08:37.760Z,101164.03
2023-05-06T19:11:04.779Z,101153.31
2023-05-06T19:13:31.728Z,101153.19
2023-05-06T19:15:58.460Z,101158.34
2023-05-06T19:18:25.231Z,101143.78
2023-05-06T19:20:53.431Z,101154.44
2023-05-06T19:23:20.516Z,101156.94
2023-05-06T19:25:47.859Z,101132.00
2023-05-06T19:28:14.624Z,101131.59
2023-05-06T19:30:41.618Z,101144.22
2023-05-06T19:33:08.454Z,101142.66
2023-05-06T19:35:38.771Z,101152.13
2023-05-06T19:38:07.234Z,101146.94
2023-05-06T19:40:35.492Z,101147.03
2023-05-06T19:43:05.145Z,101149.34
2023-05-06T19:45:33.572Z,101143.88
2023-05-06T19:48:01.383Z,101158.06
2023-05-06T19:50:28.595Z,101150.88
2023-05-06T19:52:55.957Z,101157.84
2023-05-06T19:55:23.334Z,101155.66
2023-05-06T19:57:51.224Z,101157.34
2023-05-06T20:00:20.101Z,101167.97
2023-05-06T20:02:47.237Z,101160.13
2023-05-06T20:05:14.327Z,101159.00
2023-05-06T20:07:41.462Z,101145.59
2023-05-06T20:10:10.136Z,101158.84
2023-05-06T20:12:37.050Z,101147.84
2023-05-06T20:15:04.362Z,101150.19
2023-05-06T20:17:31.206Z,101147.44
2023-05-06T20:19:58.649Z,101143.56
2023-05-06T20:22:25.924Z,101137.44
2023-05-06T20:24:53.338Z,101148.13
2023-05-06T20:27:23.100Z,101146.38
2023-05-06T20:29:51.649Z,101146.59
2023-05-06T20:32:18.629Z,101139.78
2023-05-06T20:34:45.886Z,101147.88
2023-05-06T20:37:12.754Z,101145.22
2023-05-06T20:39:39.510Z,101144.75
2023-05-06T20:42:06.454Z,101154.50
2023-05-06T20:44:33.801Z,101157.38
2023-05-06T20:47:02.068Z,101159.09
2023-05-06T20:49:29.223Z,101168.06
2023-05-06T20:51:56.239Z,101172.50
2023-05-06T20:54:22.929Z,101178.31
2023-05-06T20:56:49.874Z,101162.59
2023-05-06T20:59:16.690Z,101170.72
2023-05-06T21:01:43.836Z,101162.75
2023-05-06T21:04:10.837Z,101170.34
2023-05-06T21:06:37.544Z,101166.03
2023-05-06T21:09:04.295Z,101159.91
2023-05-06T21:11:34.407Z,101167.09
2023-05-06T21:14:01.264Z,101163.72
2023-05-06T21:16:28.095Z,101169.97
2023-05-06T21:18:54.824Z,101170.22
2023-05-06T21:21:24.580Z,101170.50
2023-05-06T21:23:51.767Z,101179.94
2023-05-06T21:26:18.681Z,101175.06
2023-05-06T21:28:51.135Z,101167.53
2023-05-06T21:31:23.902Z,101176.03
2023-05-06T21:33:55.743Z,101172.09
2023-05-06T21:36:22.781Z,101164.88
2023-05-06T21:38:59.212Z,101154.97
2023-05-06T21:41:26.442Z,101162.06
2023-05-06T21:43:53.264Z,101159.63
2023-05-06T21:46:20.057Z,101162.88
2023-05-06T21:48:46.724Z,101164.44
2023-05-06T21:51:13.644Z,101158.09
2023-05-06T21:53:41.582Z,101148.09
2023-05-06T21:56:08.429Z,101154.56
2023-05-06T21:58:35.323Z,101149.66
2023-05-06T22:01:02.091Z,101153.53
2023-05-06T22:03:28.987Z,101157.31
2023-05-06T22:05:56.144Z,101140.56
2023-05-06T22:08:23.002Z,101144.09
2023-05-06T22:10:49.734Z,101145.22
2023-05-06T22:13:16.844Z,101147.81
2023-05-06T22:15:43.824Z,101147.38
2023-05-06T22:18:10.906Z,101138.75
2023-05-06T22:20:37.748Z,101150.34
2023-05-06T22:23:04.673Z,101151.09
2023-05-06T22:25:31.457Z,101144.13
2023-05-06T22:27:58.350Z,101147.88
2023-05-06T22:30:25.138Z,101150.72
2023-05-06T22:32:57.879Z,101157.16
2023-05-06T22:35:24.639Z,101157.53
2023-05-06T22:37:51.275Z,101161.16
2023-05-06T22:40:18.098Z,101157.41
2023-05-06T22:42:44.863Z,101164.88
2023-05-06T22:45:12.027Z,101162.75
2023-05-06T22:47:39.033Z,101173.59
2023-05-06T22:50:06.812Z,101166.72
2023-05-06T22:52:34.286Z,101169.75
2023-05-06T22:55:01.170Z,101166.50
2023-05-06T22:57:27.946Z,101160.91
2023-05-06T22:59:54.842Z,101159.69
2023-05-06T23:02:21.588Z,101158.97
2023-05-06T23:04:48.557Z,101164.34
2023-05-06T23:07:15.728Z,101166.72
2023-05-06T23:09:42.477Z,101164.88
2023-05-06T23:12:09.286Z,101164.44
2023-05-06T23:14:36.674Z,101171.41
2023-05-06T23:17:03.544Z,101171.16
2023-05-06T23:19:30.747Z,101173.41
2023-05-06T23:21:57.596Z,101170.91
2023-05-06T23:24:24.396Z,101167.84
2023-05-06T23:26:52.025Z,101167.72
2023-05-06T23:29:18.801Z,101171.03
2023-05-06T23:31:45.648Z,101168.06
2023-05-06T23:34:12.545Z,101173.72
2023-05-06T23:36:39.365Z,101162.66
2023-05-06T23:39:06.019Z,101171.97
2023-05-06T23:41:32.731Z,101164.13
2023-05-06T23:43:59.421Z,101163.19
2023-05-06T23:46:26.351Z,101156.31
2023-05-06T23:48:53.170Z,101162.88
2023-05-06T23:51:19.838Z,101163.81
2023-05-06T23:53:47.007Z,101172.88
2023-05-06T23:56:13.732Z,101169.22
2023-05-06T23:58:40.550Z,101173.75
